createdAt,value
2022-09-06T00:00:35.073Z,98.30
2022-09-06T00:01:34.686Z,85.10
2022-09-06T00:02:34.695Z,91.90
2022-09-06T00:03:34.727Z,82.60
2022-09-06T00:04:34.696Z,88.20
2022-09-06T00:05:34.965Z,96.00
2022-09-06T00:06:34.631Z,82.80
2022-09-06T00:07:34.606Z,83.10
2022-09-06T00:08:34.577Z,96.00
2022-09-06T00:09:34.555Z,98.60
2022-09-06T00:10:34.993Z,97.30
2022-09-06T00:11:34.531Z,100.10
2022-09-06T00:12:34.526Z,100.50
2022-09-06T00:13:34.683Z,87.60
2022-09-06T00:14:34.653Z,96.80
2022-09-06T00:15:35.002Z,96.50
2022-09-06T00:16:34.463Z,96.80
2022-09-06T00:17:34.472Z,100.70
2022-09-06T00:18:34.445Z,93.80
2022-09-06T00:19:34.450Z,91.20
2022-09-06T00:20:34.782Z,76.30
2022-09-06T00:21:34.443Z,85.20
2022-09-06T00:22:34.432Z,81.60
2022-09-06T00:23:34.519Z,91.50
2022-09-06T00:24:34.391Z,73.60
2022-09-06T00:25:34.352Z,85.70
2022-09-06T00:26:34.760Z,76.50
2022-09-06T00:27:34.332Z,81.50
2022-09-06T00:28:34.301Z,81.10
2022-09-06T00:29:34.373Z,85.40
2022-09-06T00:30:34.818Z,79.60
2022-09-06T00:31:34.744Z,90.60
2022-09-06T00:32:34.260Z,95.90
2022-09-06T00:33:34.252Z,90.50
2022-09-06T00:34:34.230Z,97.30
2022-09-06T00:35:34.218Z,99.40
2022-09-06T00:36:34.591Z,92.00
2022-09-06T00:37:34.200Z,96.20
2022-09-06T00:38:34.191Z,85.90
2022-09-06T00:39:34.212Z,89.00
2022-09-06T00:40:34.164Z,87.00
2022-09-06T00:41:34.491Z,91.20
2022-09-06T00:42:34.131Z,97.30
2022-09-06T00:43:34.130Z,92.60
2022-09-06T00:44:34.121Z,97.00
2022-09-06T00:45:34.098Z,90.80
2022-09-06T00:46:34.589Z,80.80
2022-09-06T00:47:34.095Z,91.50
2022-09-06T00:48:34.059Z,96.50
2022-09-06T00:49:34.048Z,91.60
2022-09-06T00:50:34.036Z,87.40
2022-09-06T00:51:34.457Z,91.00
2022-09-06T00:52:34.017Z,96.40
2022-09-06T00:53:33.997Z,89.30
2022-09-06T00:54:33.973Z,90.20
2022-09-06T00:55:33.949Z,87.70
2022-09-06T00:56:34.307Z,93.90
2022-09-06T00:57:33.933Z,94.70
2022-09-06T00:58:33.927Z,96.80
2022-09-06T00:59:33.918Z,88.50
2022-09-06T01:00:33.929Z,87.40
2022-09-06T01:01:34.291Z,94.10
2022-09-06T01:02:33.916Z,76.70
2022-09-06T01:03:33.858Z,85.10
2022-09-06T01:04:33.856Z,74.80
2022-09-06T01:05:33.846Z,81.30
2022-09-06T01:06:34.256Z,90.20
2022-09-06T01:07:33.799Z,87.60
2022-09-06T01:08:33.917Z,80.90
2022-09-06T01:09:33.831Z,87.50
2022-09-06T01:10:33.774Z,81.60
2022-09-06T01:11:34.096Z,81.70
2022-09-06T01:12:33.744Z,80.40
2022-09-06T01:13:33.726Z,76.10
2022-09-06T01:14:33.737Z,69.70
2022-09-06T01:15:33.745Z,67.70
2022-09-06T01:16:34.034Z,75.80
2022-09-06T01:17:33.661Z,73.10
2022-09-06T01:18:33.672Z,72.10
2022-09-06T01:19:33.734Z,81.40
2022-09-06T01:20:34.196Z,85.80
2022-09-06T01:21:34.105Z,83.40
2022-09-06T01:22:33.625Z,90.50
2022-09-06T01:23:33.584Z,85.20
2022-09-06T01:24:33.595Z,84.10
2022-09-06T01:25:33.556Z,78.40
2022-09-06T01:26:33.986Z,75.00
2022-09-06T01:27:33.535Z,67.90
2022-09-06T01:28:33.513Z,77.70
2022-09-06T01:29:33.495Z,72.80
2022-09-06T01:30:33.579Z,71.60
2022-09-06T01:31:33.843Z,78.00
2022-09-06T01:32:33.454Z,89.00
2022-09-06T01:33:33.444Z,83.40
2022-09-06T01:34:33.443Z,85.40
2022-09-06T01:35:33.453Z,82.60
2022-09-06T01:36:33.773Z,80.80
2022-09-06T01:37:33.399Z,88.20
2022-09-06T01:38:33.384Z,88.00
2022-09-06T01:39:33.477Z,94.20
2022-09-06T01:40:33.375Z,92.70
2022-09-06T01:41:33.772Z,81.00
2022-09-06T01:42:33.370Z,80.40
2022-09-06T01:43:33.347Z,76.20
2022-09-06T01:44:33.316Z,70.80
2022-09-06T01:45:33.302Z,72.00
2022-09-06T01:46:33.774Z,73.60
2022-09-06T01:47:33.270Z,82.70
2022-09-06T01:48:33.253Z,70.30
2022-09-06T01:49:33.244Z,78.10
2022-09-06T01:50:33.281Z,80.30
2022-09-06T01:51:33.862Z,87.20
2022-09-06T01:52:33.193Z,79.60
2022-09-06T01:53:33.188Z,86.90
2022-09-06T01:54:33.161Z,75.70
2022-09-06T01:55:33.191Z,81.60
2022-09-06T01:56:33.610Z,76.90
2022-09-06T01:57:33.132Z,76.70
2022-09-06T01:58:33.115Z,90.70
2022-09-06T01:59:33.111Z,74.90
2022-09-06T02:00:33.111Z,79.00
2022-09-06T02:01:33.547Z,84.00
2022-09-06T02:02:33.135Z,80.70
2022-09-06T02:03:33.049Z,72.70
2022-09-06T02:04:33.039Z,73.40
2022-09-06T02:05:33.048Z,73.40
2022-09-06T02:06:33.460Z,70.60
2022-09-06T02:07:32.991Z,62.70
2022-09-06T02:08:32.987Z,65.50
2022-09-06T02:09:33.007Z,54.60
2022-09-06T02:10:32.979Z,57.10
2022-09-06T02:11:33.368Z,54.10
2022-09-06T02:12:32.931Z,56.40
2022-09-06T02:13:32.925Z,53.20
2022-09-06T02:14:32.917Z,61.30
2022-09-06T02:15:32.899Z,54.30
2022-09-06T02:16:33.291Z,59.80
2022-09-06T02:17:32.880Z,62.40
2022-09-06T02:18:33.130Z,65.90
2022-09-06T02:19:32.843Z,64.50
2022-09-06T02:20:32.828Z,66.40
2022-09-06T02:21:32.833Z,64.80
2022-09-06T02:22:33.235Z,62.30
2022-09-06T02:23:32.786Z,68.60
2022-09-06T02:24:32.787Z,73.40
2022-09-06T02:25:32.755Z,74.80
2022-09-06T02:26:32.775Z,65.40
2022-09-06T02:27:33.158Z,76.30
2022-09-06T02:28:32.793Z,73.00
2022-09-06T02:29:32.905Z,75.70
2022-09-06T02:30:32.846Z,81.50
2022-09-06T02:31:32.697Z,86.00
2022-09-06T02:32:33.087Z,78.40
2022-09-06T02:33:32.672Z,83.00
2022-09-06T02:34:32.637Z,79.70
2022-09-06T02:35:32.636Z,78.50
2022-09-06T02:36:32.639Z,80.70
2022-09-06T02:37:32.956Z,77.60
2022-09-06T02:38:32.736Z,80.20
2022-09-06T02:39:32.669Z,79.00
2022-09-06T02:40:33.258Z,66.70
2022-09-06T02:41:32.545Z,76.50
2022-09-06T02:42:32.954Z,71.40
2022-09-06T02:43:32.535Z,79.30
2022-09-06T02:44:32.514Z,78.40
2022-09-06T02:45:32.504Z,78.10
2022-09-06T02:46:32.991Z,85.40
2022-09-06T02:47:32.477Z,71.70
2022-09-06T02:48:32.489Z,67.00
2022-09-06T02:49:32.435Z,54.90
2022-09-06T02:50:32.435Z,60.10
2022-09-06T02:51:32.436Z,65.40
2022-09-06T02:52:32.753Z,50.50
2022-09-06T02:53:32.446Z,52.10
2022-09-06T02:54:32.376Z,56.70
2022-09-06T02:55:32.362Z,56.70
2022-09-06T02:56:32.344Z,61.40
2022-09-06T02:57:32.695Z,58.10
2022-09-06T02:58:32.335Z,55.50
2022-09-06T02:59:32.374Z,57.00
2022-09-06T03:00:32.295Z,59.20
2022-09-06T03:01:32.349Z,63.30
2022-09-06T03:02:32.887Z,60.60
2022-09-06T03:03:32.260Z,56.50
2022-09-06T03:04:32.253Z,65.20
2022-09-06T03:05:32.251Z,67.20
2022-09-06T03:06:32.221Z,62.40
2022-09-06T03:07:32.623Z,58.30
2022-09-06T03:08:32.186Z,60.10
2022-09-06T03:09:32.172Z,60.50
2022-09-06T03:10:32.172Z,61.90
2022-09-06T03:11:32.143Z,63.10
2022-09-06T03:12:32.534Z,60.80
2022-09-06T03:13:32.150Z,65.30
2022-09-06T03:14:32.112Z,65.60
2022-09-06T03:15:32.244Z,66.60
2022-09-06T03:16:32.162Z,68.80
2022-09-06T03:17:32.413Z,71.80
2022-09-06T03:18:32.054Z,63.30
2022-09-06T03:19:32.035Z,65.00
2022-09-06T03:20:36.837Z,67.30
2022-09-06T03:21:33.022Z,68.60
2022-09-06T03:22:32.423Z,66.90
2022-09-06T03:23:32.011Z,59.90
2022-09-06T03:24:31.962Z,63.20
2022-09-06T03:25:31.962Z,59.00
2022-09-06T03:26:31.941Z,62.40
2022-09-06T03:27:32.350Z,56.10
2022-09-06T03:28:31.920Z,55.50
2022-09-06T03:29:31.899Z,59.10
2022-09-06T03:30:31.958Z,59.10
2022-09-06T03:31:31.880Z,60.00
2022-09-06T03:32:32.290Z,60.80
2022-09-06T03:33:31.848Z,58.70
2022-09-06T03:34:31.849Z,59.30
2022-09-06T03:35:31.810Z,56.10
2022-09-06T03:36:31.799Z,48.10
2022-09-06T03:37:39.158Z,45.50
2022-09-06T03:38:38.786Z,57.20
2022-09-06T03:39:31.806Z,56.10
2022-09-06T03:40:31.789Z,46.40
2022-09-06T03:41:31.734Z,51.40
2022-09-06T03:42:32.063Z,45.20
2022-09-06T03:43:31.720Z,44.00
2022-09-06T03:44:31.704Z,45.40
2022-09-06T03:45:31.778Z,48.20
2022-09-06T03:46:31.680Z,53.20
2022-09-06T03:47:32.083Z,49.70
2022-09-06T03:48:31.654Z,48.60
2022-09-06T03:49:31.666Z,51.30
2022-09-06T03:50:31.622Z,46.80
2022-09-06T03:51:31.618Z,54.40
2022-09-06T03:52:32.031Z,50.90
2022-09-06T03:53:31.618Z,56.80
2022-09-06T03:54:31.581Z,53.50
2022-09-06T03:55:31.570Z,59.90
2022-09-06T03:56:31.552Z,63.40
2022-09-06T03:57:31.993Z,64.70
2022-09-06T03:58:31.532Z,66.80
2022-09-06T03:59:31.511Z,67.30
2022-09-06T04:00:37.389Z,69.60
2022-09-06T04:01:31.554Z,70.80
2022-09-06T04:02:32.006Z,70.30
2022-09-06T04:03:31.450Z,68.40
2022-09-06T04:04:31.451Z,68.20
2022-09-06T04:05:31.434Z,58.20
2022-09-06T04:06:31.438Z,68.40
2022-09-06T04:07:31.874Z,73.90
2022-09-06T04:08:32.086Z,69.20
2022-09-06T04:09:31.619Z,72.40
2022-09-06T04:10:31.385Z,78.20
2022-09-06T04:11:31.344Z,69.30
2022-09-06T04:12:31.358Z,67.30
2022-09-06T04:13:31.790Z,76.80
2022-09-06T04:14:31.298Z,75.10
2022-09-06T04:15:31.301Z,70.30
2022-09-06T04:16:31.338Z,72.20
2022-09-06T04:17:31.285Z,72.00
2022-09-06T04:18:31.660Z,64.20
2022-09-06T04:19:31.259Z,64.40
2022-09-06T04:20:31.228Z,61.00
2022-09-06T04:21:31.218Z,54.60
2022-09-06T04:22:31.608Z,60.90
2022-09-06T04:23:31.208Z,56.90
2022-09-06T04:24:31.192Z,56.60
2022-09-06T04:25:31.199Z,60.90
2022-09-06T04:26:31.217Z,61.90
2022-09-06T04:27:31.305Z,58.80
2022-09-06T04:28:31.547Z,61.30
2022-09-06T04:29:31.147Z,60.80
2022-09-06T04:30:31.367Z,62.70
2022-09-06T04:31:31.131Z,63.50
2022-09-06T04:32:31.084Z,69.30
2022-09-06T04:33:31.435Z,65.90
2022-09-06T04:34:31.072Z,65.10
2022-09-06T04:35:31.027Z,62.60
2022-09-06T04:36:31.069Z,62.40
2022-09-06T04:37:31.007Z,65.20
2022-09-06T04:38:31.469Z,59.80
2022-09-06T04:39:31.040Z,67.70
2022-09-06T04:40:30.956Z,61.00
2022-09-06T04:41:30.938Z,59.90
2022-09-06T04:42:30.930Z,59.50
2022-09-06T04:43:31.319Z,59.90
2022-09-06T04:44:30.905Z,56.20
2022-09-06T04:45:30.960Z,59.90
2022-09-06T04:46:30.876Z,60.00
2022-09-06T04:47:30.879Z,54.90
2022-09-06T04:48:31.279Z,57.20
2022-09-06T04:49:30.846Z,49.60
2022-09-06T04:50:30.865Z,47.60
2022-09-06T04:51:31.633Z,55.20
2022-09-06T04:52:30.901Z,54.70
2022-09-06T04:53:31.478Z,51.40
2022-09-06T04:54:31.904Z,55.60
2022-09-06T04:55:30.824Z,60.70
2022-09-06T04:56:30.903Z,56.80
2022-09-06T04:57:30.734Z,61.60
2022-09-06T04:58:31.171Z,61.10
2022-09-06T04:59:30.724Z,67.50
2022-09-06T05:00:30.690Z,65.40
2022-09-06T05:01:30.739Z,69.20
2022-09-06T05:02:30.735Z,70.10
2022-09-06T05:03:31.096Z,69.80
2022-09-06T05:04:30.641Z,67.40
2022-09-06T05:05:30.662Z,71.10
2022-09-06T05:06:30.604Z,65.40
2022-09-06T05:07:30.605Z,67.80
2022-09-06T05:08:30.923Z,73.00
2022-09-06T05:09:30.582Z,73.90
2022-09-06T05:10:30.577Z,75.10
2022-09-06T05:11:30.553Z,71.40
2022-09-06T05:12:30.525Z,79.70
2022-09-06T05:13:30.952Z,73.20
2022-09-06T05:14:30.493Z,70.20
2022-09-06T05:15:30.489Z,70.50
2022-09-06T05:16:30.504Z,67.20
2022-09-06T05:17:30.522Z,73.10
2022-09-06T05:18:31.092Z,69.10
2022-09-06T05:19:30.446Z,71.70
2022-09-06T05:20:30.437Z,65.10
2022-09-06T05:21:30.418Z,71.90
2022-09-06T05:22:30.411Z,64.40
2022-09-06T05:23:30.835Z,61.20
2022-09-06T05:24:30.462Z,64.30
2022-09-06T05:25:30.372Z,66.30
2022-09-06T05:26:30.340Z,59.20
2022-09-06T05:27:30.347Z,62.50
2022-09-06T05:28:30.381Z,60.30
2022-09-06T05:29:30.679Z,64.00
2022-09-06T05:30:30.304Z,58.30
2022-09-06T05:31:30.345Z,60.90
2022-09-06T05:32:30.268Z,64.10
2022-09-06T05:33:30.699Z,57.90
2022-09-06T05:34:30.301Z,58.70
2022-09-06T05:35:30.249Z,63.10
2022-09-06T05:36:30.236Z,58.20
2022-09-06T05:37:30.203Z,63.20
2022-09-06T05:38:30.769Z,61.90
2022-09-06T05:39:30.228Z,63.50
2022-09-06T05:40:30.187Z,64.60
2022-09-06T05:41:30.169Z,55.70
2022-09-06T05:42:30.140Z,69.10
2022-09-06T05:43:30.569Z,68.10
2022-09-06T05:44:30.179Z,70.50
2022-09-06T05:45:30.155Z,67.20
2022-09-06T05:46:30.099Z,71.60
2022-09-06T05:47:30.079Z,69.40
2022-09-06T05:48:34.609Z,76.80
2022-09-06T05:49:31.507Z,76.50
2022-09-06T05:50:30.037Z,75.90
2022-09-06T05:51:30.031Z,73.60
2022-09-06T05:52:30.037Z,72.80
2022-09-06T05:53:30.430Z,70.90
2022-09-06T05:54:29.987Z,70.80
2022-09-06T05:55:29.978Z,76.90
2022-09-06T05:56:29.948Z,83.90
2022-09-06T05:57:29.948Z,83.20
2022-09-06T05:58:30.367Z,78.20
2022-09-06T05:59:29.926Z,78.40
2022-09-06T06:00:29.927Z,91.60
2022-09-06T06:01:30.023Z,82.70
2022-09-06T06:02:29.939Z,83.20
2022-09-06T06:03:30.325Z,85.60
2022-09-06T06:04:29.858Z,96.70
2022-09-06T06:05:29.837Z,91.70
2022-09-06T06:06:29.837Z,90.10
2022-09-06T06:07:29.815Z,87.90
2022-09-06T06:08:29.805Z,89.00
2022-09-06T06:09:30.219Z,93.10
2022-09-06T06:10:29.776Z,85.80
2022-09-06T06:11:29.768Z,88.10
2022-09-06T06:12:29.744Z,93.20
2022-09-06T06:13:30.106Z,86.40
2022-09-06T06:14:29.725Z,94.50
2022-09-06T06:15:29.716Z,96.40
2022-09-06T06:16:29.726Z,89.00
2022-09-06T06:17:29.686Z,94.50
2022-09-06T06:18:29.668Z,92.90
2022-09-06T06:19:30.015Z,91.20
2022-09-06T06:20:29.643Z,88.50
2022-09-06T06:21:29.676Z,86.60
2022-09-06T06:22:29.644Z,83.30
2022-09-06T06:23:30.017Z,89.00
2022-09-06T06:24:29.597Z,85.10
2022-09-06T06:25:29.578Z,89.00
2022-09-06T06:26:29.570Z,93.10
2022-09-06T06:27:29.564Z,87.40
2022-09-06T06:28:29.998Z,88.90
2022-09-06T06:29:29.548Z,88.60
2022-09-06T06:30:29.508Z,90.40
2022-09-06T06:31:29.561Z,97.70
2022-09-06T06:32:29.487Z,96.60
2022-09-06T06:33:29.515Z,95.50
2022-09-06T06:34:29.486Z,99.20
2022-09-06T06:35:29.462Z,94.10
2022-09-06T06:36:29.448Z,98.00
2022-09-06T06:37:29.425Z,86.30
2022-09-06T06:38:29.563Z,95.60
2022-09-06T06:39:29.454Z,89.30
2022-09-06T06:40:29.388Z,90.30
2022-09-06T06:41:29.382Z,99.60
2022-09-06T06:42:29.354Z,106.20
2022-09-06T06:43:29.686Z,125.00
2022-09-06T06:44:29.350Z,126.00
2022-09-06T06:45:29.401Z,113.50
2022-09-06T06:46:29.309Z,113.20
2022-09-06T06:47:29.301Z,102.30
2022-09-06T06:48:29.729Z,110.60
2022-09-06T06:49:29.272Z,117.90
2022-09-06T06:50:29.262Z,103.40
2022-09-06T06:51:29.280Z,122.50
2022-09-06T06:52:29.240Z,111.30
2022-09-06T06:53:29.253Z,106.50
2022-09-06T06:54:29.211Z,105.40
2022-09-06T06:55:29.216Z,118.90
2022-09-06T06:56:29.189Z,99.50
2022-09-06T06:57:29.173Z,104.40
2022-09-06T06:58:29.295Z,108.20
2022-09-06T06:59:29.141Z,113.20
2022-09-06T07:00:29.167Z,101.20
2022-09-06T07:01:29.255Z,106.40
2022-09-06T07:02:29.319Z,110.60
2022-09-06T07:03:29.499Z,97.40
2022-09-06T07:04:29.083Z,98.00
2022-09-06T07:07:30.165Z,84.10
2022-09-06T07:08:29.363Z,70.60
2022-09-06T07:10:33.403Z,67.10
2022-09-06T07:11:28.997Z,70.70
2022-09-06T07:12:29.016Z,55.80
2022-09-06T07:13:29.478Z,65.30
2022-09-06T07:14:28.982Z,49.40
2022-09-06T07:15:28.933Z,26.90
2022-09-06T07:16:28.951Z,11.20
2022-09-06T07:17:28.923Z,3.30
2022-09-06T07:18:28.892Z,2.30
2022-09-06T07:20:30.074Z,0.70
2022-09-06T07:22:29.852Z,0.90
2022-09-06T07:24:29.823Z,0.90
2022-09-06T07:25:28.824Z,1.40
2022-09-06T07:26:28.812Z,1.10
2022-09-06T07:27:50.132Z,1.10
2022-09-06T07:28:30.356Z,1.00
2022-09-06T07:29:28.763Z,2.40
2022-09-06T07:30:28.752Z,2.50
2022-09-06T07:32:29.724Z,4.80
2022-09-06T07:33:28.852Z,1.90
2022-09-06T07:34:28.696Z,4.90
2022-09-06T07:35:28.693Z,2.00
2022-09-06T07:36:28.689Z,1.90
2022-09-06T07:37:28.659Z,3.50
2022-09-06T07:38:29.006Z,2.60
2022-09-06T07:39:28.650Z,0.10
2022-09-06T07:40:28.620Z,0.20
2022-09-06T07:41:28.605Z,2.00
2022-09-06T07:42:31.697Z,0.90
2022-09-06T07:43:30.026Z,1.00
2022-09-06T07:44:28.580Z,0.80
2022-09-06T07:45:28.562Z,3.30
2022-09-06T07:46:28.580Z,1.10
2022-09-06T07:47:57.445Z,0.80
2022-09-06T07:48:29.555Z,1.40
2022-09-06T07:49:32.912Z,1.80
2022-09-06T07:51:29.486Z,0.10
2022-09-06T07:53:31.290Z,0.40
2022-09-06T07:54:31.054Z,0.20
2022-09-06T07:55:28.433Z,0.60
2022-09-06T07:56:28.418Z,1.30
2022-09-06T07:57:28.402Z,2.40
2022-09-06T07:58:28.723Z,1.20
2022-09-06T07:59:28.374Z,1.00
2022-09-06T08:00:28.361Z,0.50
2022-09-06T08:01:28.429Z,0.40
2022-09-06T08:02:28.403Z,0.80
2022-09-06T08:03:28.890Z,0.60
2022-09-06T08:04:28.313Z,1.00
2022-09-06T08:06:29.462Z,0.10
2022-09-06T08:07:40.974Z,0.60
2022-09-06T08:08:57.887Z,0.50
2022-09-06T08:09:29.269Z,0.20
2022-09-06T08:10:28.232Z,0.40
2022-09-06T08:11:28.232Z,0.10
2022-09-06T08:12:28.211Z,0.30
2022-09-06T08:13:28.306Z,0.10
2022-09-06T08:14:28.183Z,0.10
2022-09-06T08:15:28.172Z,0.60
2022-09-06T08:16:28.192Z,0.50
2022-09-06T08:17:28.176Z,0.10
2022-09-06T08:18:28.143Z,0.10
2022-09-06T08:19:28.153Z,0.10
2022-09-06T08:20:28.103Z,0.20
2022-09-06T08:21:28.111Z,0.60
2022-09-06T08:22:28.081Z,0.60
2022-09-06T08:23:28.267Z,0.60
2022-09-06T08:24:28.061Z,0.70
2022-09-06T08:25:28.052Z,0.20
2022-09-06T08:26:28.031Z,0.20
2022-09-06T08:27:28.022Z,0.60
2022-09-06T08:28:29.008Z,0.30
2022-09-06T08:29:27.997Z,0.70
2022-09-06T08:30:27.985Z,0.10
2022-09-06T08:31:28.026Z,0.10
2022-09-06T08:32:27.956Z,0.10
2022-09-06T08:33:28.506Z,0.10
2022-09-06T08:34:27.943Z,0.10
2022-09-06T08:35:27.919Z,0.20
2022-09-06T08:36:27.904Z,0.70
2022-09-06T08:37:27.901Z,0.10
2022-09-06T08:38:27.883Z,0.50
2022-09-06T08:39:27.911Z,0.20
2022-09-06T08:40:27.860Z,0.10
2022-09-06T08:41:27.858Z,1.10
2022-09-06T08:42:27.851Z,0.10
2022-09-06T08:43:28.208Z,0.10
2022-09-06T08:44:56.433Z,0.60
2022-09-06T08:45:28.802Z,0.10
2022-09-06T08:46:27.796Z,0.10
2022-09-06T08:47:27.870Z,0.10
2022-09-06T08:48:28.291Z,0.10
2022-09-06T08:49:27.765Z,0.20
2022-09-06T08:50:27.732Z,0.20
2022-09-06T08:51:27.730Z,0.20
2022-09-06T08:52:27.703Z,0.20
2022-09-06T08:53:27.699Z,0.40
2022-09-06T08:54:28.162Z,0.40
2022-09-06T08:55:27.682Z,0.30
2022-09-06T08:56:27.653Z,0.10
2022-09-06T08:57:27.754Z,0.50
2022-09-06T08:58:27.680Z,0.20
2022-09-06T08:59:27.952Z,0.10
2022-09-06T09:00:27.694Z,0.50
2022-09-06T09:01:27.590Z,0.10
2022-09-06T09:02:27.651Z,0.10
2022-09-06T09:03:27.560Z,0.10
2022-09-06T09:04:28.000Z,0.50
2022-09-06T09:05:27.532Z,0.10
2022-09-06T09:06:27.529Z,0.10
2022-09-06T09:07:27.534Z,0.50
2022-09-06T09:08:27.629Z,0.10
2022-09-06T09:09:27.919Z,0.10
2022-09-06T09:10:27.470Z,0.20
2022-09-06T09:11:27.459Z,0.10
2022-09-06T09:12:27.451Z,0.20
2022-09-06T09:13:27.445Z,0.10
2022-09-06T09:14:27.865Z,0.20
2022-09-06T09:15:27.418Z,0.10
2022-09-06T09:16:27.478Z,0.20
2022-09-06T09:17:27.382Z,0.20
2022-09-06T09:18:27.522Z,0.10
2022-09-06T09:19:27.792Z,0.10
2022-09-06T09:20:27.350Z,0.20
2022-09-06T09:21:30.415Z,0.20
2022-09-06T09:22:27.441Z,0.30
2022-09-06T09:23:27.319Z,0.10
2022-09-06T09:24:27.640Z,0.20
2022-09-06T09:25:27.281Z,0.40
2022-09-06T09:26:27.281Z,0.10
2022-09-06T09:27:27.263Z,0.10
2022-09-06T09:28:27.318Z,0.40
2022-09-06T09:29:29.473Z,0.20
2022-09-06T09:30:49.543Z,0.20
2022-09-06T09:31:28.268Z,0.10
2022-09-06T09:32:27.199Z,0.20
2022-09-06T09:33:27.182Z,0.10
2022-09-06T09:34:27.542Z,0.10
2022-09-06T09:35:27.153Z,0.20
2022-09-06T09:36:27.157Z,0.20
2022-09-06T09:37:49.330Z,0.10
2022-09-06T09:38:28.233Z,0.10
2022-09-06T09:39:27.129Z,0.30
2022-09-06T09:40:27.481Z,0.10
2022-09-06T09:41:27.078Z,0.10
2022-09-06T09:42:27.082Z,0.10
2022-09-06T09:43:27.052Z,0.10
2022-09-06T09:44:27.051Z,0.10
2022-09-06T09:45:27.427Z,0.10
2022-09-06T09:46:27.062Z,0.30
2022-09-06T09:47:27.012Z,0.10
2022-09-06T09:48:27.159Z,0.10
2022-09-06T09:49:26.982Z,0.90
2022-09-06T09:50:27.399Z,0.10
2022-09-06T09:51:27.596Z,0.10
2022-09-06T09:52:26.940Z,0.10
2022-09-06T09:53:26.991Z,0.20
2022-09-06T09:54:26.910Z,0.20
2022-09-06T09:55:28.110Z,0.20
2022-09-06T09:56:26.891Z,0.10
2022-09-06T09:57:26.872Z,0.30
2022-09-06T09:58:26.888Z,0.10
2022-09-06T09:59:26.859Z,0.20
2022-09-06T10:00:26.881Z,0.20
2022-09-06T10:01:26.864Z,0.20
2022-09-06T10:02:26.853Z,0.10
2022-09-06T10:03:26.914Z,0.20
2022-09-06T10:05:28.168Z,0.40
2022-09-06T10:07:27.761Z,0.20
2022-09-06T10:08:26.820Z,0.20
2022-09-06T10:09:26.710Z,0.20
2022-09-06T10:10:27.169Z,0.10
2022-09-06T10:11:26.707Z,0.20
2022-09-06T10:12:26.689Z,0.20
2022-09-06T10:13:26.678Z,0.20
2022-09-06T10:14:26.651Z,0.10
2022-09-06T10:15:26.649Z,0.20
2022-09-06T10:16:27.109Z,0.10
2022-09-06T10:17:26.611Z,0.20
2022-09-06T10:18:26.609Z,0.10
2022-09-06T10:19:26.610Z,0.20
2022-09-06T10:20:26.572Z,0.10
2022-09-06T10:21:26.954Z,0.20
2022-09-06T10:22:26.550Z,0.30
2022-09-06T10:24:27.994Z,0.10
2022-09-06T10:25:26.508Z,0.30
2022-09-06T10:26:26.858Z,0.20
2022-09-06T10:27:26.487Z,0.10
2022-09-06T10:28:26.588Z,0.20
2022-09-06T10:29:26.467Z,0.10
2022-09-06T10:30:26.455Z,0.10
2022-09-06T10:31:26.470Z,0.20
2022-09-06T10:32:30.794Z,0.20
2022-09-06T10:33:26.440Z,0.10
2022-09-06T10:34:26.400Z,0.20
2022-09-06T10:35:26.381Z,0.20
2022-09-06T10:36:26.385Z,0.10
2022-09-06T10:37:26.749Z,0.20
2022-09-06T10:38:26.418Z,0.20
2022-09-06T10:39:26.360Z,0.10
2022-09-06T10:40:26.321Z,0.20
2022-09-06T10:41:26.303Z,0.30
2022-09-06T10:42:26.739Z,0.20
2022-09-06T10:43:26.294Z,0.10
2022-09-06T10:44:26.282Z,0.10
2022-09-06T10:45:26.250Z,0.10
2022-09-06T10:46:26.768Z,0.10
2022-09-06T10:47:26.230Z,0.10
2022-09-06T10:48:26.297Z,0.20
2022-09-06T10:49:26.210Z,0.10
2022-09-06T10:50:26.208Z,0.10
2022-09-06T10:51:26.181Z,0.10
2022-09-06T10:52:26.580Z,0.20
2022-09-06T10:53:26.160Z,0.20
2022-09-06T10:54:26.153Z,0.30
2022-09-06T10:55:26.130Z,0.10
2022-09-06T10:56:26.130Z,0.20
2022-09-06T10:58:27.680Z,0.20
2022-09-06T10:59:38.921Z,0.30
2022-09-06T11:00:27.069Z,0.10
2022-09-06T11:01:26.098Z,0.10
2022-09-06T11:02:26.464Z,0.10
2022-09-06T11:03:58.330Z,0.20
2022-09-06T11:04:27.060Z,0.10
2022-09-06T11:05:40.400Z,0.20
2022-09-06T11:06:28.731Z,0.20
2022-09-06T11:07:26.061Z,0.10
2022-09-06T11:08:48.258Z,0.10
2022-09-06T11:09:26.950Z,0.10
2022-09-06T11:10:25.949Z,0.10
2022-09-06T11:11:25.931Z,0.20
2022-09-06T11:12:25.920Z,0.10
2022-09-06T11:13:26.247Z,0.10
2022-09-06T11:14:25.889Z,0.10
2022-09-06T11:15:25.880Z,0.10
2022-09-06T11:16:25.963Z,0.20
2022-09-06T11:17:25.860Z,0.20
2022-09-06T11:18:26.101Z,0.20
2022-09-06T11:19:25.830Z,0.20
2022-09-06T11:20:29.911Z,0.20
2022-09-06T11:21:26.811Z,0.10
2022-09-06T11:22:25.821Z,0.10
2022-09-06T11:23:26.265Z,0.10
2022-09-06T11:24:25.771Z,0.10
2022-09-06T11:25:25.761Z,0.10
2022-09-06T11:26:25.761Z,0.20
2022-09-06T11:27:25.746Z,0.10
2022-09-06T11:28:25.763Z,0.10
2022-09-06T11:29:25.713Z,0.10
2022-09-06T11:30:25.702Z,0.10
2022-09-06T11:32:26.921Z,0.10
2022-09-06T11:33:25.794Z,0.10
2022-09-06T11:34:25.660Z,0.10
2022-09-06T11:35:25.651Z,0.10
2022-09-06T11:36:25.621Z,0.10
2022-09-06T11:37:25.701Z,0.10
2022-09-06T11:38:25.988Z,0.20
2022-09-06T11:40:27.885Z,0.10
2022-09-06T11:41:25.566Z,0.10
2022-09-06T11:42:25.657Z,0.10
2022-09-06T11:43:25.887Z,0.10
2022-09-06T11:44:25.531Z,0.20
2022-09-06T11:45:27.239Z,0.10
2022-09-06T11:46:25.530Z,0.20
2022-09-06T11:47:25.490Z,0.10
2022-09-06T11:48:25.484Z,0.10
2022-09-06T11:49:25.902Z,0.10
2022-09-06T11:50:25.451Z,0.30
2022-09-06T11:51:25.455Z,0.10
2022-09-06T11:52:25.428Z,0.20
2022-09-06T11:53:25.832Z,0.20
2022-09-06T11:54:25.414Z,0.10
2022-09-06T11:55:25.391Z,0.20
2022-09-06T11:56:25.393Z,0.10
2022-09-06T11:57:25.443Z,0.20
2022-09-06T11:58:25.791Z,0.10
2022-09-06T11:59:25.343Z,0.10
2022-09-06T12:00:25.342Z,0.10
2022-09-06T12:01:25.319Z,0.20
2022-09-06T12:02:25.420Z,0.10
2022-09-06T12:04:26.302Z,0.20
2022-09-06T12:05:25.272Z,0.10
2022-09-06T12:06:25.254Z,0.20
2022-09-06T12:07:25.272Z,0.10
2022-09-06T12:08:25.283Z,0.20
2022-09-06T12:09:25.730Z,0.20
2022-09-06T12:10:25.215Z,0.20
2022-09-06T12:11:28.026Z,0.20
2022-09-06T12:12:26.183Z,0.20
2022-09-06T12:13:25.201Z,0.10
2022-09-06T12:14:25.162Z,0.30
2022-09-06T12:15:25.179Z,0.10
2022-09-06T12:16:25.229Z,0.10
2022-09-06T12:17:25.114Z,0.20
2022-09-06T12:18:25.501Z,0.10
2022-09-06T12:19:25.089Z,0.10
2022-09-06T12:20:25.082Z,0.10
2022-09-06T12:21:25.062Z,0.10
2022-09-06T12:22:25.062Z,0.20
2022-09-06T12:23:25.351Z,0.10
2022-09-06T12:24:25.029Z,0.10
2022-09-06T12:25:25.023Z,0.20
2022-09-06T12:26:25.002Z,0.10
2022-09-06T12:27:24.995Z,0.10
2022-09-06T12:28:24.981Z,0.10
2022-09-06T12:29:25.372Z,0.20
2022-09-06T12:30:24.952Z,0.10
2022-09-06T12:31:25.024Z,0.10
2022-09-06T12:32:24.932Z,0.10
2022-09-06T12:33:25.325Z,0.10
2022-09-06T12:34:24.903Z,0.30
2022-09-06T12:36:25.883Z,0.10
2022-09-06T12:37:24.873Z,0.10
2022-09-06T12:38:25.046Z,0.10
2022-09-06T12:39:24.897Z,0.10
2022-09-06T12:40:24.843Z,0.10
2022-09-06T12:41:24.816Z,0.20
2022-09-06T12:42:24.805Z,0.10
2022-09-06T12:43:25.117Z,0.20
2022-09-06T12:44:24.783Z,0.10
2022-09-06T12:45:27.411Z,0.20
2022-09-06T12:46:24.845Z,0.10
2022-09-06T12:47:24.754Z,0.10
2022-09-06T12:48:25.084Z,0.10
2022-09-06T12:49:25.703Z,0.20
2022-09-06T12:50:24.718Z,0.10
2022-09-06T12:51:24.693Z,0.10
2022-09-06T12:52:24.763Z,0.10
2022-09-06T12:53:25.042Z,0.10
2022-09-06T12:54:24.664Z,0.20
2022-09-06T12:55:24.648Z,0.10
2022-09-06T12:56:24.635Z,0.10
2022-09-06T12:57:24.820Z,0.10
2022-09-06T12:58:25.034Z,0.10
2022-09-06T12:59:24.607Z,0.30
2022-09-06T13:00:24.582Z,0.10
2022-09-06T13:01:24.725Z,0.10
2022-09-06T13:02:24.644Z,0.10
2022-09-06T13:03:24.897Z,0.10
2022-09-06T13:04:24.546Z,0.20
2022-09-06T13:05:24.513Z,0.20
2022-09-06T13:06:26.839Z,0.10
2022-09-06T13:07:24.494Z,0.20
2022-09-06T13:08:24.587Z,0.20
2022-09-06T13:09:24.471Z,0.20
2022-09-06T13:10:24.485Z,0.20
2022-09-06T13:11:24.451Z,0.10
2022-09-06T13:12:24.435Z,0.20
2022-09-06T13:13:24.733Z,0.20
2022-09-06T13:14:24.415Z,0.20
2022-09-06T13:15:24.397Z,0.10
2022-09-06T13:16:24.425Z,0.10
2022-09-06T13:17:24.467Z,0.20
2022-09-06T13:18:24.415Z,0.10
2022-09-06T13:19:24.344Z,0.10
2022-09-06T13:20:24.339Z,0.20
2022-09-06T13:21:24.336Z,0.10